sensor_id;sensor_type;location;lat;lon;timestamp;P1;durP1;ratioP1;P2;durP2;ratioP2
40737;SDS011;54759;48.094;-1.628;2022-07-11T00:00:44;0.52;;;0.45;;
40737;SDS011;54759;48.094;-1.628;2022-07-11T00:03:45;0.35;;;0.30;;
40737;SDS011;54759;48.094;-1.628;2022-07-11T00:06:48;0.30;;;0.30;;
40737;SDS011;54759;48.094;-1.628;2022-07-11T00:09:53;0.40;;;0.40;;
40737;SDS011;54759;48.094;-1.628;2022-07-11T00:12:54;0.40;;;0.20;;
40737;SDS011;54759;48.094;-1.628;2022-07-11T00:15:56;0.30;;;0.30;;
40737;SDS011;54759;48.094;-1.628;2022-07-11T00:18:58;0.38;;;0.30;;
40737;SDS011;54759;48.094;-1.628;2022-07-11T00:21:59;0.30;;;0.30;;
40737;SDS011;54759;48.094;-1.628;2022-07-11T00:25:01;0.65;;;0.40;;
40737;SDS011;54759;48.094;-1.628;2022-07-11T00:28:03;0.20;;;0.20;;
40737;SDS011;54759;48.094;-1.628;2022-07-11T00:31:08;0.40;;;0.22;;
40737;SDS011;54759;48.094;-1.628;2022-07-11T00:34:11;0.35;;;0.20;;
40737;SDS011;54759;48.094;-1.628;2022-07-11T00:37:12;0.40;;;0.28;;
40737;SDS011;54759;48.094;-1.628;2022-07-11T00:40:14;0.22;;;0.20;;
40737;SDS011;54759;48.094;-1.628;2022-07-11T00:43:16;0.35;;;0.28;;
40737;SDS011;54759;48.094;-1.628;2022-07-11T00:46:20;0.68;;;0.30;;
40737;SDS011;54759;48.094;-1.628;2022-07-11T00:49:22;0.57;;;0.30;;
40737;SDS011;54759;48.094;-1.628;2022-07-11T00:52:23;0.50;;;0.30;;
40737;SDS011;54759;48.094;-1.628;2022-07-11T00:55:26;0.20;;;0.20;;
40737;SDS011;54759;48.094;-1.628;2022-07-11T00:58:28;0.30;;;0.30;;
40737;SDS011;54759;48.094;-1.628;2022-07-11T01:01:32;0.38;;;0.30;;
40737;SDS011;54759;48.094;-1.628;2022-07-11T01:04:35;0.30;;;0.20;;
40737;SDS011;54759;48.094;-1.628;2022-07-11T01:07:38;0.22;;;0.20;;
40737;SDS011;54759;48.094;-1.628;2022-07-11T01:10:43;0.40;;;0.40;;
40737;SDS011;54759;48.094;-1.628;2022-07-11T01:13:45;0.45;;;0.30;;
40737;SDS011;54759;48.094;-1.628;2022-07-11T01:16:48;0.40;;;0.40;;
40737;SDS011;54759;48.094;-1.628;2022-07-11T01:19:51;0.28;;;0.20;;
40737;SDS011;54759;48.094;-1.628;2022-07-11T01:22:53;0.25;;;0.20;;
40737;SDS011;54759;48.094;-1.628;2022-07-11T01:25:57;0.30;;;0.30;;
40737;SDS011;54759;48.094;-1.628;2022-07-11T01:29:04;0.20;;;0.20;;
40737;SDS011;54759;48.094;-1.628;2022-07-11T01:32:07;0.22;;;0.22;;
40737;SDS011;54759;48.094;-1.628;2022-07-11T01:35:08;0.40;;;0.30;;
40737;SDS011;54759;48.094;-1.628;2022-07-11T01:38:10;0.35;;;0.30;;
40737;SDS011;54759;48.094;-1.628;2022-07-11T01:41:12;0.20;;;0.20;;
40737;SDS011;54759;48.094;-1.628;2022-07-11T01:44:14;0.30;;;0.30;;
40737;SDS011;54759;48.094;-1.628;2022-07-11T01:47:16;0.30;;;0.20;;
40737;SDS011;54759;48.094;-1.628;2022-07-11T01:50:17;0.20;;;0.20;;
40737;SDS011;54759;48.094;-1.628;2022-07-11T01:53:19;0.20;;;0.20;;
40737;SDS011;54759;48.094;-1.628;2022-07-11T01:56:21;0.25;;;0.25;;
40737;SDS011;54759;48.094;-1.628;2022-07-11T01:59:32;0.40;;;0.28;;
40737;SDS011;54759;48.094;-1.628;2022-07-11T02:02:34;0.30;;;0.28;;
40737;SDS011;54759;48.094;-1.628;2022-07-11T02:05:35;0.50;;;0.30;;
40737;SDS011;54759;48.094;-1.628;2022-07-11T02:08:41;0.40;;;0.40;;
40737;SDS011;54759;48.094;-1.628;2022-07-11T02:11:43;0.40;;;0.20;;
40737;SDS011;54759;48.094;-1.628;2022-07-11T02:14:45;0.40;;;0.30;;
40737;SDS011;54759;48.094;-1.628;2022-07-11T02:17:46;0.20;;;0.20;;
40737;SDS011;54759;48.094;-1.628;2022-07-11T02:20:48;0.38;;;0.30;;
40737;SDS011;54759;48.094;-1.628;2022-07-11T02:23:50;0.20;;;0.20;;
40737;SDS011;54759;48.094;-1.628;2022-07-11T02:26:52;0.30;;;0.30;;
40737;SDS011;54759;48.094;-1.628;2022-07-11T02:29:54;0.30;;;0.30;;
40737;SDS011;54759;48.094;-1.628;2022-07-11T02:32:58;0.30;;;0.22;;
40737;SDS011;54759;48.094;-1.628;2022-07-11T02:36:01;0.30;;;0.20;;
40737;SDS011;54759;48.094;-1.628;2022-07-11T02:39:05;0.40;;;0.30;;
40737;SDS011;54759;48.094;-1.628;2022-07-11T02:42:11;0.30;;;0.30;;
40737;SDS011;54759;48.094;-1.628;2022-07-11T02:45:12;0.40;;;0.20;;
40737;SDS011;54759;48.094;-1.628;2022-07-11T02:48:14;0.50;;;0.40;;
40737;SDS011;54759;48.094;-1.628;2022-07-11T02:51:15;0.20;;;0.20;;
40737;SDS011;54759;48.094;-1.628;2022-07-11T02:54:17;0.25;;;0.22;;
40737;SDS011;54759;48.094;-1.628;2022-07-11T02:57:19;0.32;;;0.20;;
40737;SDS011;54759;48.094;-1.628;2022-07-11T03:00:21;0.20;;;0.20;;
40737;SDS011;54759;48.094;-1.628;2022-07-11T03:03:22;0.30;;;0.30;;
40737;SDS011;54759;48.094;-1.628;2022-07-11T03:06:24;0.45;;;0.35;;
40737;SDS011;54759;48.094;-1.628;2022-07-11T03:09:29;0.30;;;0.28;;
40737;SDS011;54759;48.094;-1.628;2022-07-11T03:12:31;0.20;;;0.20;;
40737;SDS011;54759;48.094;-1.628;2022-07-11T03:15:32;0.22;;;0.20;;
40737;SDS011;54759;48.094;-1.628;2022-07-11T03:18:34;0.20;;;0.20;;
40737;SDS011;54759;48.094;-1.628;2022-07-11T03:21:36;0.30;;;0.28;;
40737;SDS011;54759;48.094;-1.628;2022-07-11T03:24:37;0.40;;;0.40;;
40737;SDS011;54759;48.094;-1.628;2022-07-11T03:27:39;0.40;;;0.40;;
40737;SDS011;54759;48.094;-1.628;2022-07-11T03:30:41;0.30;;;0.30;;
40737;SDS011;54759;48.094;-1.628;2022-07-11T03:33:42;0.30;;;0.30;;
40737;SDS011;54759;48.094;-1.628;2022-07-11T03:36:45;0.40;;;0.30;;
40737;SDS011;54759;48.094;-1.628;2022-07-11T03:39:50;0.30;;;0.30;;
40737;SDS011;54759;48.094;-1.628;2022-07-11T03:42:52;0.40;;;0.40;;
40737;SDS011;54759;48.094;-1.628;2022-07-11T03:45:53;0.32;;;0.30;;
40737;SDS011;54759;48.094;-1.628;2022-07-11T03:48:55;0.40;;;0.38;;
40737;SDS011;54759;48.094;-1.628;2022-07-11T03:51:57;0.60;;;0.47;;
40737;SDS011;54759;48.094;-1.628;2022-07-11T03:54:58;0.50;;;0.32;;
40737;SDS011;54759;48.094;-1.628;2022-07-11T03:58:00;0.30;;;0.30;;
40737;SDS011;54759;48.094;-1.628;2022-07-11T04:01:02;0.28;;;0.28;;
40737;SDS011;54759;48.094;-1.628;2022-07-11T04:04:04;0.40;;;0.40;;
40737;SDS011;54759;48.094;-1.628;2022-07-11T04:07:14;0.30;;;0.30;;
40737;SDS011;54759;48.094;-1.628;2022-07-11T04:10:18;0.30;;;0.30;;
40737;SDS011;54759;48.094;-1.628;2022-07-11T04:13:21;0.30;;;0.30;;
40737;SDS011;54759;48.094;-1.628;2022-07-11T04:16:22;0.50;;;0.32;;
40737;SDS011;54759;48.094;-1.628;2022-07-11T04:19:24;0.30;;;0.30;;
40737;SDS011;54759;48.094;-1.628;2022-07-11T04:22:25;0.32;;;0.20;;
40737;SDS011;54759;48.094;-1.628;2022-07-11T04:25:27;0.40;;;0.20;;
40737;SDS011;54759;48.094;-1.628;2022-07-11T04:28:29;0.38;;;0.20;;
40737;SDS011;54759;48.094;-1.628;2022-07-11T04:31:31;0.30;;;0.20;;
40737;SDS011;54759;48.094;-1.628;2022-07-11T04:34:36;0.20;;;0.20;;
40737;SDS011;54759;48.094;-1.628;2022-07-11T04:37:37;0.30;;;0.30;;
40737;SDS011;54759;48.094;-1.628;2022-07-11T04:40:39;0.70;;;0.40;;
40737;SDS011;54759;48.094;-1.628;2022-07-11T04:43:41;0.40;;;0.40;;
40737;SDS011;54759;48.094;-1.628;2022-07-11T04:46:43;0.45;;;0.30;;
40737;SDS011;54759;48.094;-1.628;2022-07-11T04:49:45;0.30;;;0.30;;
40737;SDS011;54759;48.094;-1.628;2022-07-11T04:52:47;0.25;;;0.25;;
40737;SDS011;54759;48.094;-1.628;2022-07-11T04:55:48;0.47;;;0.47;;
40737;SDS011;54759;48.094;-1.628;2022-07-11T04:58:51;0.38;;;0.30;;
40737;SDS011;54759;48.094;-1.628;2022-07-11T05:01:52;0.32;;;0.30;;
40737;SDS011;54759;48.094;-1.628;2022-07-11T05:04:54;0.20;;;0.20;;
40737;SDS011;54759;48.094;-1.628;2022-07-11T05:07:55;0.30;;;0.30;;
40737;SDS011;54759;48.094;-1.628;2022-07-11T05:10:58;0.30;;;0.30;;
40737;SDS011;54759;48.094;-1.628;2022-07-11T05:14:00;0.30;;;0.30;;
40737;SDS011;54759;48.094;-1.628;2022-07-11T05:17:02;0.22;;;0.22;;
40737;SDS011;54759;48.094;-1.628;2022-07-11T05:20:04;0.25;;;0.25;;
40737;SDS011;54759;48.094;-1.628;2022-07-11T05:23:06;0.77;;;0.32;;
40737;SDS011;54759;48.094;-1.628;2022-07-11T05:26:08;0.50;;;0.40;;
40737;SDS011;54759;48.094;-1.628;2022-07-11T05:29:18;0.40;;;0.32;;
40737;SDS011;54759;48.094;-1.628;2022-07-11T05:32:19;0.30;;;0.30;;
40737;SDS011;54759;48.094;-1.628;2022-07-11T05:35:21;0.28;;;0.28;;
40737;SDS011;54759;48.094;-1.628;2022-07-11T05:38:23;0.38;;;0.28;;
40737;SDS011;54759;48.094;-1.628;2022-07-11T05:41:27;0.40;;;0.40;;
40737;SDS011;54759;48.094;-1.628;2022-07-11T05:44:30;0.30;;;0.30;;
40737;SDS011;54759;48.094;-1.628;2022-07-11T05:47:32;0.38;;;0.30;;
40737;SDS011;54759;48.094;-1.628;2022-07-11T05:50:33;0.28;;;0.28;;
40737;SDS011;54759;48.094;-1.628;2022-07-11T05:53:35;0.40;;;0.30;;
40737;SDS011;54759;48.094;-1.628;2022-07-11T05:56:37;0.38;;;0.30;;
40737;SDS011;54759;48.094;-1.628;2022-07-11T05:59:39;0.65;;;0.40;;
40737;SDS011;54759;48.094;-1.628;2022-07-11T06:02:40;0.40;;;0.40;;
40737;SDS011;54759;48.094;-1.628;2022-07-11T06:05:45;1.02;;;0.30;;
40737;SDS011;54759;48.094;-1.628;2022-07-11T06:08:46;1.27;;;0.30;;
40737;SDS011;54759;48.094;-1.628;2022-07-11T06:11:48;1.17;;;0.60;;
40737;SDS011;54759;48.094;-1.628;2022-07-11T06:14:50;0.85;;;0.50;;
40737;SDS011;54759;48.094;-1.628;2022-07-11T06:17:52;3.67;;;0.95;;
40737;SDS011;54759;48.094;-1.628;2022-07-11T06:20:54;1.02;;;0.45;;
40737;SDS011;54759;48.094;-1.628;2022-07-11T06:23:55;1.20;;;0.55;;
40737;SDS011;54759;48.094;-1.628;2022-07-11T06:26:57;2.92;;;0.65;;
40737;SDS011;54759;48.094;-1.628;2022-07-11T06:30:01;0.90;;;0.40;;
40737;SDS011;54759;48.094;-1.628;2022-07-11T06:33:03;2.33;;;1.05;;
40737;SDS011;54759;48.094;-1.628;2022-07-11T06:36:05;1.75;;;0.70;;
40737;SDS011;54759;48.094;-1.628;2022-07-11T06:39:07;2.05;;;0.90;;
40737;SDS011;54759;48.094;-1.628;2022-07-11T06:42:09;1.17;;;0.60;;
40737;SDS011;54759;48.094;-1.628;2022-07-11T06:45:11;2.00;;;0.70;;
40737;SDS011;54759;48.094;-1.628;2022-07-11T06:48:13;1.67;;;0.73;;
40737;SDS011;54759;48.094;-1.628;2022-07-11T06:51:15;0.93;;;0.63;;
40737;SDS011;54759;48.094;-1.628;2022-07-11T06:54:17;0.65;;;0.50;;
40737;SDS011;54759;48.094;-1.628;2022-07-11T06:57:18;1.45;;;0.60;;
40737;SDS011;54759;48.094;-1.628;2022-07-11T07:00:21;1.38;;;0.40;;
40737;SDS011;54759;48.094;-1.628;2022-07-11T07:03:22;0.68;;;0.50;;
40737;SDS011;54759;48.094;-1.628;2022-07-11T07:06:24;0.80;;;0.60;;
40737;SDS011;54759;48.094;-1.628;2022-07-11T07:09:25;0.38;;;0.35;;
40737;SDS011;54759;48.094;-1.628;2022-07-11T07:12:27;0.52;;;0.40;;
40737;SDS011;54759;48.094;-1.628;2022-07-11T07:15:29;1.75;;;0.40;;
40737;SDS011;54759;48.094;-1.628;2022-07-11T07:18:31;1.30;;;0.50;;
40737;SDS011;54759;48.094;-1.628;2022-07-11T07:21:33;1.70;;;0.30;;
40737;SDS011;54759;48.094;-1.628;2022-07-11T07:24:35;0.40;;;0.30;;
40737;SDS011;54759;48.094;-1.628;2022-07-11T07:27:37;0.85;;;0.40;;
40737;SDS011;54759;48.094;-1.628;2022-07-11T07:30:39;1.20;;;0.40;;
40737;SDS011;54759;48.094;-1.628;2022-07-11T07:33:40;0.95;;;0.45;;
40737;SDS011;54759;48.094;-1.628;2022-07-11T07:36:47;0.68;;;0.40;;
40737;SDS011;54759;48.094;-1.628;2022-07-11T07:39:48;1.00;;;0.30;;
40737;SDS011;54759;48.094;-1.628;2022-07-11T07:42:50;1.13;;;0.30;;
40737;SDS011;54759;48.094;-1.628;2022-07-11T07:45:52;0.60;;;0.35;;
40737;SDS011;54759;48.094;-1.628;2022-07-11T07:48:54;0.73;;;0.30;;
40737;SDS011;54759;48.094;-1.628;2022-07-11T07:51:56;0.40;;;0.30;;
40737;SDS011;54759;48.094;-1.628;2022-07-11T07:54:57;1.23;;;0.40;;
40737;SDS011;54759;48.094;-1.628;2022-07-11T07:57:59;0.52;;;0.32;;
40737;SDS011;54759;48.094;-1.628;2022-07-11T08:01:01;1.45;;;0.50;;
40737;SDS011;54759;48.094;-1.628;2022-07-11T08:04:18;1.23;;;0.40;;
40737;SDS011;54759;48.094;-1.628;2022-07-11T08:07:19;2.47;;;0.47;;
40737;SDS011;54759;48.094;-1.628;2022-07-11T08:10:21;1.48;;;0.50;;
40737;SDS011;54759;48.094;-1.628;2022-07-11T08:13:23;0.60;;;0.50;;
40737;SDS011;54759;48.094;-1.628;2022-07-11T08:16:25;3.33;;;0.40;;
40737;SDS011;54759;48.094;-1.628;2022-07-11T08:19:29;1.50;;;0.40;;
40737;SDS011;54759;48.094;-1.628;2022-07-11T08:22:31;1.13;;;0.50;;
40737;SDS011;54759;48.094;-1.628;2022-07-11T08:25:36;0.45;;;0.32;;
40737;SDS011;54759;48.094;-1.628;2022-07-11T08:28:37;0.90;;;0.30;;
40737;SDS011;54759;48.094;-1.628;2022-07-11T08:31:39;0.30;;;0.30;;
40737;SDS011;54759;48.094;-1.628;2022-07-11T08:34:41;0.73;;;0.30;;
40737;SDS011;54759;48.094;-1.628;2022-07-11T08:37:43;1.05;;;0.50;;
40737;SDS011;54759;48.094;-1.628;2022-07-11T08:40:45;1.15;;;0.40;;
40737;SDS011;54759;48.094;-1.628;2022-07-11T08:43:51;0.77;;;0.52;;
40737;SDS011;54759;48.094;-1.628;2022-07-11T08:46:54;1.30;;;0.30;;
40737;SDS011;54759;48.094;-1.628;2022-07-11T08:49:58;0.45;;;0.30;;
40737;SDS011;54759;48.094;-1.628;2022-07-11T08:52:59;1.90;;;0.47;;
40737;SDS011;54759;48.094;-1.628;2022-07-11T08:56:04;1.20;;;0.50;;
40737;SDS011;54759;48.094;-1.628;2022-07-11T08:59:10;0.77;;;0.30;;
40737;SDS011;54759;48.094;-1.628;2022-07-11T09:02:16;0.80;;;0.35;;
40737;SDS011;54759;48.094;-1.628;2022-07-11T09:05:20;0.82;;;0.47;;
40737;SDS011;54759;48.094;-1.628;2022-07-11T09:08:22;0.60;;;0.40;;
40737;SDS011;54759;48.094;-1.628;2022-07-11T09:11:25;0.77;;;0.43;;
40737;SDS011;54759;48.094;-1.628;2022-07-11T09:14:28;0.68;;;0.30;;
40737;SDS011;54759;48.094;-1.628;2022-07-11T09:17:32;0.80;;;0.35;;
40737;SDS011;54759;48.094;-1.628;2022-07-11T09:24:07;0.88;;;0.32;;
40737;SDS011;54759;48.094;-1.628;2022-07-11T09:27:23;0.73;;;0.50;;
40737;SDS011;54759;48.094;-1.628;2022-07-11T09:30:26;0.63;;;0.40;;
40737;SDS011;54759;48.094;-1.628;2022-07-11T09:33:29;0.68;;;0.40;;
40737;SDS011;54759;48.094;-1.628;2022-07-11T09:36:39;1.20;;;0.40;;
40737;SDS011;54759;48.094;-1.628;2022-07-11T09:39:42;1.65;;;0.32;;
40737;SDS011;54759;48.094;-1.628;2022-07-11T09:42:47;0.32;;;0.25;;
40737;SDS011;54759;48.094;-1.628;2022-07-11T09:45:50;1.58;;;0.20;;
40737;SDS011;54759;48.094;-1.628;2022-07-11T09:48:52;0.30;;;0.30;;
40737;SDS011;54759;48.094;-1.628;2022-07-11T09:51:54;0.47;;;0.30;;
40737;SDS011;54759;48.094;-1.628;2022-07-11T09:54:57;0.40;;;0.22;;
40737;SDS011;54759;48.094;-1.628;2022-07-11T09:58:03;0.40;;;0.30;;
40737;SDS011;54759;48.094;-1.628;2022-07-11T10:01:11;0.22;;;0.20;;
40737;SDS011;54759;48.094;-1.628;2022-07-11T10:04:13;0.20;;;0.20;;
40737;SDS011;54759;48.094;-1.628;2022-07-11T10:07:19;1.00;;;0.40;;
40737;SDS011;54759;48.094;-1.628;2022-07-11T10:10:21;1.50;;;0.30;;
40737;SDS011;54759;48.094;-1.628;2022-07-11T10:13:22;0.93;;;0.20;;
40737;SDS011;54759;48.094;-1.628;2022-07-11T10:16:27;0.95;;;0.30;;
40737;SDS011;54759;48.094;-1.628;2022-07-11T10:19:40;0.30;;;0.17;;
40737;SDS011;54759;48.094;-1.628;2022-07-11T10:22:56;0.20;;;0.20;;
40737;SDS011;54759;48.094;-1.628;2022-07-11T10:26:08;0.25;;;0.20;;
40737;SDS011;54759;48.094;-1.628;2022-07-11T10:29:14;0.13;;;0.10;;
40737;SDS011;54759;48.094;-1.628;2022-07-11T10:32:20;0.38;;;0.20;;
40737;SDS011;54759;48.094;-1.628;2022-07-11T10:35:23;0.28;;;0.20;;
40737;SDS011;54759;48.094;-1.628;2022-07-11T10:38:25;0.17;;;0.15;;
40737;SDS011;54759;48.094;-1.628;2022-07-11T10:41:26;0.30;;;0.20;;
40737;SDS011;54759;48.094;-1.628;2022-07-11T10:47:49;0.20;;;0.10;;
40737;SDS011;54759;48.094;-1.628;2022-07-11T10:51:04;0.22;;;0.10;;
40737;SDS011;54759;48.094;-1.628;2022-07-11T10:54:12;0.20;;;0.15;;
40737;SDS011;54759;48.094;-1.628;2022-07-11T10:57:21;0.20;;;0.20;;
40737;SDS011;54759;48.094;-1.628;2022-07-11T11:00:28;0.32;;;0.20;;
40737;SDS011;54759;48.094;-1.628;2022-07-11T11:03:31;0.20;;;0.20;;
40737;SDS011;54759;48.094;-1.628;2022-07-11T11:06:55;0.20;;;0.20;;
40737;SDS011;54759;48.094;-1.628;2022-07-11T11:09:57;4.22;;;0.30;;
40737;SDS011;54759;48.094;-1.628;2022-07-11T11:16:17;1.00;;;0.20;;
40737;SDS011;54759;48.094;-1.628;2022-07-11T11:26:15;0.40;;;0.30;;
40737;SDS011;54759;48.094;-1.628;2022-07-11T11:29:20;0.28;;;0.10;;
40737;SDS011;54759;48.094;-1.628;2022-07-11T11:32:28;0.20;;;0.20;;
40737;SDS011;54759;48.094;-1.628;2022-07-11T11:35:31;1.55;;;0.10;;
40737;SDS011;54759;48.094;-1.628;2022-07-11T11:38:33;0.38;;;0.30;;
40737;SDS011;54759;48.094;-1.628;2022-07-11T11:41:36;0.15;;;0.10;;
40737;SDS011;54759;48.094;-1.628;2022-07-11T11:47:56;0.35;;;0.20;;
40737;SDS011;54759;48.094;-1.628;2022-07-11T11:51:00;1.08;;;0.20;;
40737;SDS011;54759;48.094;-1.628;2022-07-11T11:54:03;0.30;;;0.20;;
40737;SDS011;54759;48.094;-1.628;2022-07-11T11:57:06;0.10;;;0.10;;
40737;SDS011;54759;48.094;-1.628;2022-07-11T12:00:19;0.20;;;0.20;;
40737;SDS011;54759;48.094;-1.628;2022-07-11T12:03:49;0.30;;;0.20;;
40737;SDS011;54759;48.094;-1.628;2022-07-11T12:06:54;0.20;;;0.20;;
40737;SDS011;54759;48.094;-1.628;2022-07-11T12:09:56;0.57;;;0.35;;
40737;SDS011;54759;48.094;-1.628;2022-07-11T12:13:00;0.20;;;0.20;;
40737;SDS011;54759;48.094;-1.628;2022-07-11T12:16:02;0.30;;;0.10;;
40737;SDS011;54759;48.094;-1.628;2022-07-11T12:19:31;0.32;;;0.20;;
40737;SDS011;54759;48.094;-1.628;2022-07-11T12:22:41;0.38;;;0.20;;
40737;SDS011;54759;48.094;-1.628;2022-07-11T12:25:44;0.30;;;0.20;;
40737;SDS011;54759;48.094;-1.628;2022-07-11T12:32:11;0.30;;;0.10;;
40737;SDS011;54759;48.094;-1.628;2022-07-11T12:35:13;0.13;;;0.10;;
40737;SDS011;54759;48.094;-1.628;2022-07-11T12:38:15;0.20;;;0.10;;
40737;SDS011;54759;48.094;-1.628;2022-07-11T12:41:17;0.13;;;0.10;;
40737;SDS011;54759;48.094;-1.628;2022-07-11T12:44:23;0.20;;;0.17;;
40737;SDS011;54759;48.094;-1.628;2022-07-11T12:47:39;0.47;;;0.20;;
40737;SDS011;54759;48.094;-1.628;2022-07-11T12:50:41;0.38;;;0.15;;
40737;SDS011;54759;48.094;-1.628;2022-07-11T12:53:44;0.45;;;0.10;;
40737;SDS011;54759;48.094;-1.628;2022-07-11T12:56:53;1.27;;;0.28;;
40737;SDS011;54759;48.094;-1.628;2022-07-11T13:00:10;0.75;;;0.10;;
40737;SDS011;54759;48.094;-1.628;2022-07-11T13:03:16;0.20;;;0.10;;
40737;SDS011;54759;48.094;-1.628;2022-07-11T13:06:41;0.30;;;0.20;;
40737;SDS011;54759;48.094;-1.628;2022-07-11T13:09:57;0.20;;;0.20;;
40737;SDS011;54759;48.094;-1.628;2022-07-11T13:12:59;0.30;;;0.10;;
40737;SDS011;54759;48.094;-1.628;2022-07-11T13:16:02;0.57;;;0.17;;
40737;SDS011;54759;48.094;-1.628;2022-07-11T13:19:05;0.52;;;0.20;;
40737;SDS011;54759;48.094;-1.628;2022-07-11T13:22:07;0.75;;;0.22;;
40737;SDS011;54759;48.094;-1.628;2022-07-11T13:25:09;0.10;;;0.10;;
40737;SDS011;54759;48.094;-1.628;2022-07-11T13:28:12;0.38;;;0.20;;
40737;SDS011;54759;48.094;-1.628;2022-07-11T13:31:15;0.30;;;0.13;;
40737;SDS011;54759;48.094;-1.628;2022-07-11T13:34:18;1.10;;;0.10;;
40737;SDS011;54759;48.094;-1.628;2022-07-11T13:37:19;0.65;;;0.15;;
40737;SDS011;54759;48.094;-1.628;2022-07-11T13:40:22;0.22;;;0.20;;
40737;SDS011;54759;48.094;-1.628;2022-07-11T13:43:24;0.52;;;0.20;;
40737;SDS011;54759;48.094;-1.628;2022-07-11T13:46:26;1.45;;;0.15;;
40737;SDS011;54759;48.094;-1.628;2022-07-11T13:49:30;0.40;;;0.20;;
40737;SDS011;54759;48.094;-1.628;2022-07-11T13:52:32;0.20;;;0.15;;
40737;SDS011;54759;48.094;-1.628;2022-07-11T13:55:34;0.10;;;0.10;;
40737;SDS011;54759;48.094;-1.628;2022-07-11T13:58:39;0.13;;;0.13;;
40737;SDS011;54759;48.094;-1.628;2022-07-11T14:01:43;0.60;;;0.15;;
40737;SDS011;54759;48.094;-1.628;2022-07-11T14:04:45;0.15;;;0.10;;
40737;SDS011;54759;48.094;-1.628;2022-07-11T14:07:47;0.20;;;0.15;;
40737;SDS011;54759;48.094;-1.628;2022-07-11T14:10:50;0.10;;;0.10;;
40737;SDS011;54759;48.094;-1.628;2022-07-11T14:13:52;0.20;;;0.17;;
40737;SDS011;54759;48.094;-1.628;2022-07-11T14:16:54;0.10;;;0.10;;
40737;SDS011;54759;48.094;-1.628;2022-07-11T14:19:55;0.10;;;0.10;;
40737;SDS011;54759;48.094;-1.628;2022-07-11T14:22:57;0.20;;;0.10;;
40737;SDS011;54759;48.094;-1.628;2022-07-11T14:25:59;0.10;;;0.10;;
40737;SDS011;54759;48.094;-1.628;2022-07-11T14:29:01;0.03;;;0.03;;
40737;SDS011;54759;48.094;-1.628;2022-07-11T14:32:07;0.20;;;0.20;;
40737;SDS011;54759;48.094;-1.628;2022-07-11T14:35:09;0.35;;;0.20;;
40737;SDS011;54759;48.094;-1.628;2022-07-11T14:38:11;0.30;;;0.10;;
40737;SDS011;54759;48.094;-1.628;2022-07-11T14:41:13;0.20;;;0.20;;
40737;SDS011;54759;48.094;-1.628;2022-07-11T14:44:16;0.20;;;0.20;;
40737;SDS011;54759;48.094;-1.628;2022-07-11T14:47:18;0.20;;;0.20;;
40737;SDS011;54759;48.094;-1.628;2022-07-11T14:50:20;0.35;;;0.20;;
40737;SDS011;54759;48.094;-1.628;2022-07-11T14:53:22;0.40;;;0.20;;
40737;SDS011;54759;48.094;-1.628;2022-07-11T14:56:23;0.10;;;0.10;;
40737;SDS011;54759;48.094;-1.628;2022-07-11T14:59:35;0.40;;;0.10;;
40737;SDS011;54759;48.094;-1.628;2022-07-11T15:02:37;0.10;;;0.10;;
40737;SDS011;54759;48.094;-1.628;2022-07-11T15:05:53;0.60;;;0.10;;
40737;SDS011;54759;48.094;-1.628;2022-07-11T15:08:55;0.15;;;0.15;;
40737;SDS011;54759;48.094;-1.628;2022-07-11T15:12:08;0.10;;;0.10;;
40737;SDS011;54759;48.094;-1.628;2022-07-11T15:15:24;0.10;;;0.10;;
40737;SDS011;54759;48.094;-1.628;2022-07-11T15:18:26;0.73;;;0.10;;
40737;SDS011;54759;48.094;-1.628;2022-07-11T15:21:28;0.10;;;0.10;;
40737;SDS011;54759;48.094;-1.628;2022-07-11T15:24:30;0.10;;;0.10;;
40737;SDS011;54759;48.094;-1.628;2022-07-11T15:27:32;0.20;;;0.10;;
40737;SDS011;54759;48.094;-1.628;2022-07-11T15:30:34;0.35;;;0.20;;
40737;SDS011;54759;48.094;-1.628;2022-07-11T15:33:36;0.15;;;0.10;;
40737;SDS011;54759;48.094;-1.628;2022-07-11T15:36:38;0.35;;;0.10;;
40737;SDS011;54759;48.094;-1.628;2022-07-11T15:39:40;0.10;;;0.10;;
40737;SDS011;54759;48.094;-1.628;2022-07-11T15:42:41;0.22;;;0.15;;
40737;SDS011;54759;48.094;-1.628;2022-07-11T15:45:43;0.20;;;0.20;;
40737;SDS011;54759;48.094;-1.628;2022-07-11T15:48:45;0.52;;;0.20;;
40737;SDS011;54759;48.094;-1.628;2022-07-11T15:51:47;0.05;;;0.03;;
40737;SDS011;54759;48.094;-1.628;2022-07-11T15:54:48;1.17;;;0.17;;
40737;SDS011;54759;48.094;-1.628;2022-07-11T15:57:53;0.10;;;0.10;;
40737;SDS011;54759;48.094;-1.628;2022-07-11T16:00:55;0.10;;;0.10;;
40737;SDS011;54759;48.094;-1.628;2022-07-11T16:03:58;0.10;;;0.10;;
40737;SDS011;54759;48.094;-1.628;2022-07-11T16:07:00;0.10;;;0.10;;
40737;SDS011;54759;48.094;-1.628;2022-07-11T16:10:02;0.10;;;0.10;;
40737;SDS011;54759;48.094;-1.628;2022-07-11T16:13:05;0.75;;;0.10;;
40737;SDS011;54759;48.094;-1.628;2022-07-11T16:16:07;0.30;;;0.10;;
40737;SDS011;54759;48.094;-1.628;2022-07-11T16:19:10;0.10;;;0.10;;
40737;SDS011;54759;48.094;-1.628;2022-07-11T16:22:11;0.30;;;0.10;;
40737;SDS011;54759;48.094;-1.628;2022-07-11T16:25:13;0.35;;;0.10;;
40737;SDS011;54759;48.094;-1.628;2022-07-11T16:28:21;0.10;;;0.10;;
40737;SDS011;54759;48.094;-1.628;2022-07-11T16:31:25;0.20;;;0.10;;
40737;SDS011;54759;48.094;-1.628;2022-07-11T16:34:27;0.30;;;0.10;;
40737;SDS011;54759;48.094;-1.628;2022-07-11T16:37:29;1.13;;;0.10;;
40737;SDS011;54759;48.094;-1.628;2022-07-11T16:40:33;0.25;;;0.20;;
40737;SDS011;54759;48.094;-1.628;2022-07-11T16:43:48;0.10;;;0.10;;
40737;SDS011;54759;48.094;-1.628;2022-07-11T16:46:50;0.50;;;0.20;;
40737;SDS011;54759;48.094;-1.628;2022-07-11T16:49:52;0.10;;;0.10;;
40737;SDS011;54759;48.094;-1.628;2022-07-11T16:52:53;0.10;;;0.10;;
40737;SDS011;54759;48.094;-1.628;2022-07-11T16:55:55;0.00;;;0.00;;
40737;SDS011;54759;48.094;-1.628;2022-07-11T16:58:56;0.20;;;0.10;;
40737;SDS011;54759;48.094;-1.628;2022-07-11T17:01:58;0.10;;;0.10;;
40737;SDS011;54759;48.094;-1.628;2022-07-11T17:05:00;0.08;;;0.00;;
40737;SDS011;54759;48.094;-1.628;2022-07-11T17:08:02;0.13;;;0.10;;
40737;SDS011;54759;48.094;-1.628;2022-07-11T17:11:18;0.35;;;0.10;;
40737;SDS011;54759;48.094;-1.628;2022-07-11T17:14:20;0.10;;;0.10;;
40737;SDS011;54759;48.094;-1.628;2022-07-11T17:17:22;0.10;;;0.10;;
40737;SDS011;54759;48.094;-1.628;2022-07-11T17:20:24;0.10;;;0.10;;
40737;SDS011;54759;48.094;-1.628;2022-07-11T17:23:25;0.10;;;0.10;;
40737;SDS011;54759;48.094;-1.628;2022-07-11T17:26:28;0.08;;;0.08;;
40737;SDS011;54759;48.094;-1.628;2022-07-11T17:29:30;0.05;;;0.05;;
40737;SDS011;54759;48.094;-1.628;2022-07-11T17:32:32;0.10;;;0.10;;
40737;SDS011;54759;48.094;-1.628;2022-07-11T17:35:34;0.10;;;0.10;;
40737;SDS011;54759;48.094;-1.628;2022-07-11T17:38:36;0.10;;;0.10;;
40737;SDS011;54759;48.094;-1.628;2022-07-11T17:41:42;0.10;;;0.10;;
40737;SDS011;54759;48.094;-1.628;2022-07-11T17:44:43;0.40;;;0.10;;
40737;SDS011;54759;48.094;-1.628;2022-07-11T17:47:45;0.32;;;0.20;;
40737;SDS011;54759;48.094;-1.628;2022-07-11T17:50:47;0.10;;;0.10;;
40737;SDS011;54759;48.094;-1.628;2022-07-11T17:54:12;0.10;;;0.10;;
40737;SDS011;54759;48.094;-1.628;2022-07-11T17:57:14;0.10;;;0.10;;
40737;SDS011;54759;48.094;-1.628;2022-07-11T18:00:15;0.10;;;0.10;;
40737;SDS011;54759;48.094;-1.628;2022-07-11T18:03:20;0.10;;;0.10;;
40737;SDS011;54759;48.094;-1.628;2022-07-11T18:06:22;0.17;;;0.10;;
40737;SDS011;54759;48.094;-1.628;2022-07-11T18:09:24;0.13;;;0.10;;
40737;SDS011;54759;48.094;-1.628;2022-07-11T18:12:25;0.15;;;0.15;;
40737;SDS011;54759;48.094;-1.628;2022-07-11T18:15:27;0.15;;;0.10;;
40737;SDS011;54759;48.094;-1.628;2022-07-11T18:18:35;0.10;;;0.10;;
40737;SDS011;54759;48.094;-1.628;2022-07-11T18:21:37;0.20;;;0.10;;
40737;SDS011;54759;48.094;-1.628;2022-07-11T18:24:38;0.30;;;0.20;;
40737;SDS011;54759;48.094;-1.628;2022-07-11T18:27:40;0.20;;;0.10;;
40737;SDS011;54759;48.094;-1.628;2022-07-11T18:30:45;0.10;;;0.10;;